createdAt,value
2017-07-11T00:00:07.240Z,16.58
2017-07-11T00:01:07.270Z,16.58
2017-07-11T00:02:07.191Z,16.48
2017-07-11T00:03:07.479Z,16.49
2017-07-11T00:04:07.870Z,16.58
2017-07-11T00:05:07.784Z,16.49
2017-07-11T00:06:07.119Z,16.52
2017-07-11T00:07:06.949Z,16.51
2017-07-11T00:08:06.876Z,16.51
2017-07-11T00:09:07.595Z,16.51
2017-07-11T00:10:07.263Z,16.48
2017-07-11T00:11:07.754Z,16.48
2017-07-11T00:12:07.330Z,16.36
2017-07-11T00:13:06.987Z,16.48
2017-07-11T00:14:06.918Z,16.49
2017-07-11T00:15:07.234Z,16.51
2017-07-11T00:16:07.250Z,16.49
2017-07-11T00:17:07.204Z,16.54
2017-07-11T00:18:07.686Z,16.42
2017-07-11T00:19:07.506Z,16.51
2017-07-11T00:20:06.919Z,16.47
2017-07-11T00:21:07.500Z,16.4
2017-07-11T00:22:07.224Z,16.52
2017-07-11T00:23:06.876Z,16.51
2017-07-11T00:24:07.948Z,16.58
2017-07-11T00:25:07.523Z,16.52
2017-07-11T00:26:06.823Z,16.54
2017-07-11T00:27:06.952Z,16.48
2017-07-11T00:28:07.300Z,16.59
2017-07-11T00:29:07.252Z,16.58
2017-07-11T00:30:07.391Z,16.55
2017-07-11T00:31:07.717Z,16.62
2017-07-11T00:32:06.792Z,16.63
2017-07-11T00:33:07.157Z,16.66
2017-07-11T00:34:07.145Z,16.59
2017-07-11T00:35:07.153Z,16.63
2017-07-11T00:36:07.889Z,16.62
2017-07-11T00:37:07.205Z,16.67
2017-07-11T00:38:07.483Z,16.66
2017-07-11T00:39:07.186Z,16.66
2017-07-11T00:40:06.799Z,16.69
2017-07-11T00:41:07.436Z,16.66
2017-07-11T00:42:06.752Z,16.66
2017-07-11T00:43:07.097Z,16.73
2017-07-11T00:44:06.782Z,16.66
2017-07-11T00:45:06.798Z,16.65
2017-07-11T00:46:06.797Z,16.59
2017-07-11T00:47:07.140Z,16.51
2017-07-11T00:48:07.465Z,16.55
2017-07-11T00:49:07.310Z,16.63
2017-07-11T00:50:07.557Z,16.55
2017-07-11T00:51:07.031Z,16.67
2017-07-11T00:52:06.740Z,16.62
2017-07-11T00:53:07.130Z,16.59
2017-07-11T00:54:07.115Z,16.58
2017-07-11T00:55:07.054Z,16.58
2017-07-11T00:56:07.559Z,16.58
2017-07-11T00:57:06.795Z,16.66
2017-07-11T00:58:06.801Z,16.66
2017-07-11T00:59:07.630Z,16.62
2017-07-11T01:00:06.915Z,16.62
2017-07-11T01:01:07.130Z,16.62
2017-07-11T01:02:07.122Z,16.62
2017-07-11T01:03:06.762Z,16.49
2017-07-11T01:04:08.011Z,16.58
2017-07-11T01:05:07.673Z,16.57
2017-07-11T01:06:07.088Z,16.55
2017-07-11T01:07:06.802Z,16.55
2017-07-11T01:08:07.573Z,16.62
2017-07-11T01:09:06.874Z,16.62
2017-07-11T01:10:07.077Z,16.65
2017-07-11T01:11:07.118Z,16.62
2017-07-11T01:12:06.760Z,16.63
2017-07-11T01:13:06.976Z,16.59
2017-07-11T01:14:07.237Z,16.51
2017-07-11T01:15:07.000Z,16.51
2017-07-11T01:16:07.037Z,16.55
2017-07-11T01:17:07.059Z,16.59
2017-07-11T01:18:06.936Z,16.62
2017-07-11T01:19:08.091Z,16.63
2017-07-11T01:20:07.024Z,16.58
2017-07-11T01:21:06.625Z,16.57
2017-07-11T01:22:06.665Z,16.59
2017-07-11T01:23:08.092Z,16.59
2017-07-11T01:24:06.823Z,16.62
2017-07-11T01:25:06.662Z,16.67
2017-07-11T01:26:07.115Z,16.51
2017-07-11T01:27:06.958Z,16.63
2017-07-11T01:28:06.790Z,16.62
2017-07-11T01:29:07.659Z,16.66
2017-07-11T01:30:07.174Z,16.67
2017-07-11T01:31:06.635Z,16.67
2017-07-11T01:32:07.434Z,16.69
2017-07-11T01:33:06.611Z,16.62
2017-07-11T01:34:07.394Z,16.66
2017-07-11T01:35:06.674Z,16.72
2017-07-11T01:36:06.592Z,16.69
2017-07-11T01:37:06.965Z,16.67
2017-07-11T01:38:07.092Z,16.73
2017-07-11T01:39:06.620Z,16.67
2017-07-11T01:40:06.643Z,16.72
2017-07-11T01:41:06.940Z,16.7
2017-07-11T01:42:07.152Z,16.67
2017-07-11T01:43:07.006Z,16.72
2017-07-11T01:44:06.570Z,16.72
2017-07-11T01:45:06.615Z,16.77
2017-07-11T01:46:06.564Z,16.82
2017-07-11T01:47:06.887Z,16.74
2017-07-11T01:48:07.847Z,16.8
2017-07-11T01:49:07.462Z,16.84
2017-07-11T01:50:06.902Z,16.85
2017-07-11T01:51:06.547Z,16.87
2017-07-11T01:52:07.092Z,16.91
2017-07-11T01:53:06.922Z,16.92
2017-07-11T01:54:06.863Z,16.82
2017-07-11T01:55:06.978Z,16.95
2017-07-11T01:56:07.293Z,16.94
2017-07-11T01:57:06.873Z,16.95
2017-07-11T01:58:06.891Z,16.92
2017-07-11T01:59:07.173Z,16.99
2017-07-11T02:00:06.484Z,17
2017-07-11T02:01:06.498Z,16.9
2017-07-11T02:02:06.905Z,16.99
2017-07-11T02:03:06.878Z,16.94
2017-07-11T02:04:06.509Z,17
2017-07-11T02:05:07.341Z,16.92
2017-07-11T02:06:06.760Z,16.94
2017-07-11T02:07:06.713Z,16.92
2017-07-11T02:08:07.233Z,16.99
2017-07-11T02:09:06.567Z,16.97
2017-07-11T02:10:06.821Z,16.94
2017-07-11T02:11:07.596Z,16.91
2017-07-11T02:12:06.987Z,16.94
2017-07-11T02:13:06.552Z,16.87
2017-07-11T02:14:06.832Z,16.88
2017-07-11T02:15:06.871Z,16.99
2017-07-11T02:16:06.448Z,16.94
2017-07-11T02:17:07.718Z,16.94
2017-07-11T02:18:06.899Z,17
2017-07-11T02:19:06.927Z,16.94
2017-07-11T02:20:06.481Z,16.94
2017-07-11T02:21:06.483Z,16.9
2017-07-11T02:22:06.522Z,16.97
2017-07-11T02:23:06.601Z,16.9
2017-07-11T02:24:07.288Z,16.97
2017-07-11T02:25:07.064Z,16.94
2017-07-11T02:26:06.880Z,16.92
2017-07-11T02:27:06.698Z,16.94
2017-07-11T02:28:07.927Z,17.02
2017-07-11T02:29:06.732Z,17.02
2017-07-11T02:30:06.450Z,17.09
2017-07-11T02:31:07.113Z,17
2017-07-11T02:32:06.892Z,17.05
2017-07-11T02:33:06.372Z,17.07
2017-07-11T02:34:06.697Z,17.05
2017-07-11T02:35:07.439Z,17.02
2017-07-11T02:36:06.733Z,17
2017-07-11T02:37:06.944Z,17.1
2017-07-11T02:38:07.068Z,17.07
2017-07-11T02:39:06.608Z,17.07
2017-07-11T02:40:06.426Z,17.06
2017-07-11T02:41:06.358Z,16.99
2017-07-11T02:42:06.350Z,17.03
2017-07-11T02:43:06.342Z,17.02
2017-07-11T02:44:06.348Z,17.02
2017-07-11T02:45:06.663Z,17.06
2017-07-11T02:46:06.333Z,17.07
2017-07-11T02:47:06.333Z,16.94
2017-07-11T02:48:06.670Z,17.03
2017-07-11T02:49:07.074Z,17.05
2017-07-11T02:50:06.709Z,17.03
2017-07-11T02:51:06.725Z,17.07
2017-07-11T02:52:07.024Z,17.03
2017-07-11T02:53:06.391Z,17.05
2017-07-11T02:54:06.686Z,16.99
2017-07-11T02:55:06.350Z,17.06
2017-07-11T02:56:06.666Z,16.92
2017-07-11T02:57:06.700Z,17.03
2017-07-11T02:58:06.359Z,16.92
2017-07-11T02:59:06.317Z,16.99
2017-07-11T03:00:06.678Z,16.97
2017-07-11T03:01:06.618Z,16.9
2017-07-11T03:02:06.287Z,16.94
2017-07-11T03:03:06.323Z,16.99
2017-07-11T03:04:06.644Z,17
2017-07-11T03:05:06.327Z,16.95
2017-07-11T03:06:06.699Z,17.02
2017-07-11T03:07:06.309Z,17
2017-07-11T03:08:06.348Z,17
2017-07-11T03:09:06.663Z,17.07
2017-07-11T03:10:06.324Z,16.92
2017-07-11T03:11:07.006Z,16.92
2017-07-11T03:12:06.630Z,17
2017-07-11T03:13:06.973Z,17.02
2017-07-11T03:14:06.356Z,17.02
2017-07-11T03:15:06.375Z,17.1
2017-07-11T03:16:06.323Z,16.94
2017-07-11T03:17:06.791Z,16.92
2017-07-11T03:18:06.265Z,16.99
2017-07-11T03:19:06.626Z,16.99
2017-07-11T03:20:06.763Z,17.05
2017-07-11T03:21:06.680Z,17.09
2017-07-11T03:22:06.306Z,16.92
2017-07-11T03:23:06.296Z,17
2017-07-11T03:24:06.599Z,17.05
2017-07-11T03:25:06.648Z,16.97
2017-07-11T03:26:06.287Z,17.02
2017-07-11T03:27:06.320Z,16.95
2017-07-11T03:28:06.253Z,17.05
2017-07-11T03:29:06.244Z,17.13
2017-07-11T03:30:06.296Z,16.99
2017-07-11T03:31:06.710Z,17.06
2017-07-11T03:32:06.541Z,17.09
2017-07-11T03:33:06.578Z,17.12
2017-07-11T03:34:06.312Z,17.03
2017-07-11T03:35:06.515Z,17.05
2017-07-11T03:36:06.572Z,17.1
2017-07-11T03:37:06.259Z,17.1
2017-07-11T03:38:06.979Z,17.07
2017-07-11T03:39:06.724Z,16.97
2017-07-11T03:40:06.342Z,17.03
2017-07-11T03:41:06.604Z,17.03
2017-07-11T03:42:06.636Z,17.09
2017-07-11T03:43:06.255Z,16.92
2017-07-11T03:44:06.451Z,17.06
2017-07-11T03:45:06.207Z,17.09
2017-07-11T03:46:06.641Z,17.02
2017-07-11T03:47:06.656Z,17.07
2017-07-11T03:48:06.321Z,17.03
2017-07-11T03:49:06.335Z,17
2017-07-11T03:50:06.206Z,17.09
2017-07-11T03:51:06.346Z,17.1
2017-07-11T03:52:06.495Z,17.05
2017-07-11T03:53:06.520Z,17.06
2017-07-11T03:54:06.184Z,17.17
2017-07-11T03:55:06.286Z,17.06
2017-07-11T03:56:06.469Z,17.02
2017-07-11T03:57:06.553Z,17.05
2017-07-11T03:58:06.194Z,17.07
2017-07-11T03:59:06.216Z,17.05
2017-07-11T04:00:06.531Z,17.12
2017-07-11T04:01:06.504Z,17.12
2017-07-11T04:02:06.136Z,17.06
2017-07-11T04:03:06.197Z,17.18
2017-07-11T04:04:06.865Z,17.12
2017-07-11T04:05:06.826Z,17.09
2017-07-11T04:06:06.217Z,17.07
2017-07-11T04:07:06.512Z,17.15
2017-07-11T04:08:06.514Z,17.09
2017-07-11T04:09:06.787Z,17.12
2017-07-11T04:10:06.511Z,17.18
2017-07-11T04:11:06.612Z,17.13
2017-07-11T04:12:06.496Z,17.12
2017-07-11T04:13:06.448Z,17.05
2017-07-11T04:14:06.166Z,17.07
2017-07-11T04:15:06.109Z,17.06
2017-07-11T04:16:06.135Z,17.06
2017-07-11T04:17:06.490Z,17.03
2017-07-11T04:18:06.110Z,17.13
2017-07-11T04:19:06.497Z,17.05
2017-07-11T04:20:06.425Z,17.03
2017-07-11T04:21:06.791Z,17.06
2017-07-11T04:22:06.794Z,17.12
2017-07-11T04:23:06.085Z,17.06
2017-07-11T04:24:06.425Z,17.07
2017-07-11T04:25:06.492Z,17.05
2017-07-11T04:26:06.403Z,17.1
2017-07-11T04:27:06.406Z,17.07
2017-07-11T04:28:06.467Z,17.1
2017-07-11T04:29:06.057Z,17.12
2017-07-11T04:30:06.120Z,17.06
2017-07-11T04:31:06.082Z,17.07
2017-07-11T04:32:06.442Z,17.1
2017-07-11T04:33:06.158Z,17.12
2017-07-11T04:34:06.389Z,17.12
2017-07-11T04:35:06.722Z,17.1
2017-07-11T04:36:06.086Z,17.13
2017-07-11T04:37:06.489Z,17.18
2017-07-11T04:38:06.694Z,17.13
2017-07-11T04:39:06.447Z,17.18
2017-07-11T04:40:06.761Z,17.18
2017-07-11T04:41:06.404Z,17.15
2017-07-11T04:42:06.394Z,17.09
2017-07-11T04:43:06.011Z,17.18
2017-07-11T04:44:06.046Z,17.17
2017-07-11T04:45:06.366Z,17.21
2017-07-11T04:46:05.983Z,17.15
2017-07-11T04:47:06.323Z,17.2
2017-07-11T04:48:06.183Z,17.21
2017-07-11T04:49:06.478Z,17.17
2017-07-11T04:50:05.988Z,17.2
2017-07-11T04:51:06.326Z,17.21
2017-07-11T04:52:06.005Z,17.2
2017-07-11T04:53:06.354Z,17.2
2017-07-11T04:54:06.405Z,17.3
2017-07-11T04:55:06.719Z,17.27
2017-07-11T04:56:06.368Z,17.15
2017-07-11T04:57:06.379Z,17.24
2017-07-11T04:58:06.047Z,17.24
2017-07-11T04:59:06.387Z,17.22
2017-07-11T05:00:06.368Z,17.18
2017-07-11T05:01:06.000Z,17.17
2017-07-11T05:02:05.981Z,17.25
2017-07-11T05:03:05.978Z,17.28
2017-07-11T05:04:06.053Z,17.28
2017-07-11T05:05:06.035Z,17.25
2017-07-11T05:06:05.984Z,17.21
2017-07-11T05:07:06.688Z,17.27
2017-07-11T05:08:06.694Z,17.3
2017-07-11T05:09:06.070Z,17.24
2017-07-11T05:10:06.323Z,17.25
2017-07-11T05:11:06.355Z,17.28
2017-07-11T05:12:06.283Z,17.21
2017-07-11T05:13:06.622Z,17.2
2017-07-11T05:14:06.225Z,17.18
2017-07-11T05:15:05.983Z,17.22
2017-07-11T05:16:05.968Z,17.13
2017-07-11T05:17:06.370Z,17.22
2017-07-11T05:18:06.374Z,17.18
2017-07-11T05:19:06.329Z,17.22
2017-07-11T05:20:06.266Z,17.12
2017-07-11T05:21:05.986Z,17.22
2017-07-11T05:22:06.317Z,17.21
2017-07-11T05:23:06.021Z,17.15
2017-07-11T05:24:06.328Z,17.17
2017-07-11T05:25:06.324Z,17.1
2017-07-11T05:26:06.278Z,17.05
2017-07-11T05:27:06.331Z,17.03
2017-07-11T05:28:05.903Z,17.03
2017-07-11T05:29:06.196Z,17.06
2017-07-11T05:30:06.242Z,17.02
2017-07-11T05:31:05.995Z,17.12
2017-07-11T05:32:06.257Z,17.07
2017-07-11T05:33:06.577Z,17.05
2017-07-11T05:34:05.973Z,17.07
2017-07-11T05:35:06.229Z,17.06
2017-07-11T05:36:05.886Z,17.03
2017-07-11T05:37:06.242Z,17.05
2017-07-11T05:38:06.168Z,17.09
2017-07-11T05:39:06.208Z,17.03
2017-07-11T05:40:06.223Z,17.05
2017-07-11T05:41:05.902Z,16.95
2017-07-11T05:42:06.170Z,17.05
2017-07-11T05:43:05.871Z,17.05
2017-07-11T05:44:06.277Z,17.12
2017-07-11T05:45:06.813Z,17.09
2017-07-11T05:46:06.359Z,17.06
2017-07-11T05:47:05.845Z,16.94
2017-07-11T05:48:05.845Z,16.97
2017-07-11T05:49:05.862Z,16.94
2017-07-11T05:50:06.521Z,16.91
2017-07-11T05:51:05.868Z,16.92
2017-07-11T05:52:06.183Z,16.95
2017-07-11T05:53:05.827Z,16.81
2017-07-11T05:54:05.851Z,16.92
2017-07-11T05:55:06.149Z,16.91
2017-07-11T05:56:05.830Z,16.85
2017-07-11T05:57:05.933Z,16.85
2017-07-11T05:58:05.781Z,16.82
2017-07-11T05:59:05.795Z,16.84
2017-07-11T06:00:06.135Z,16.82
2017-07-11T06:01:05.799Z,16.85
2017-07-11T06:02:06.190Z,16.87
2017-07-11T06:03:05.774Z,16.91
2017-07-11T06:04:06.109Z,16.84
2017-07-11T06:05:06.121Z,16.84
2017-07-11T06:06:05.805Z,16.82
2017-07-11T06:07:05.788Z,16.76
2017-07-11T06:08:06.120Z,16.84
2017-07-11T06:09:06.120Z,16.81
2017-07-11T06:10:06.126Z,16.82
2017-07-11T06:11:05.790Z,16.85
2017-07-11T06:12:06.134Z,16.88
2017-07-11T06:13:05.999Z,16.92
2017-07-11T06:14:06.079Z,16.95
2017-07-11T06:15:06.496Z,16.92
2017-07-11T06:16:05.747Z,17.02
2017-07-11T06:17:06.153Z,16.95
2017-07-11T06:18:06.438Z,17.09
2017-07-11T06:19:05.757Z,17.06
2017-07-11T06:20:06.131Z,17.06
2017-07-11T06:21:05.722Z,17.13
2017-07-11T06:22:05.711Z,17
2017-07-11T06:23:05.708Z,17.06
2017-07-11T06:24:05.782Z,17.03
2017-07-11T06:25:06.085Z,17.06
2017-07-11T06:26:05.687Z,17.02
2017-07-11T06:27:06.148Z,17.07
2017-07-11T06:28:05.757Z,17.03
2017-07-11T06:29:06.171Z,17.1
2017-07-11T06:30:06.056Z,17.13
2017-07-11T06:31:06.057Z,17.07
2017-07-11T06:32:05.830Z,17.15
2017-07-11T06:33:06.343Z,17.17
2017-07-11T06:34:06.104Z,17.07
2017-07-11T06:35:06.046Z,17.15
2017-07-11T06:36:06.079Z,17.1
2017-07-11T06:37:06.423Z,17.18
2017-07-11T06:38:05.777Z,17.09
2017-07-11T06:39:05.743Z,17.06
2017-07-11T06:40:05.709Z,17.15
2017-07-11T06:41:06.007Z,17.13
2017-07-11T06:42:06.041Z,17.24
2017-07-11T06:43:05.720Z,17.21
2017-07-11T06:44:05.660Z,17.22
2017-07-11T06:45:06.376Z,17.18
2017-07-11T06:46:05.637Z,17.22
2017-07-11T06:47:06.005Z,17.24
2017-07-11T06:48:05.725Z,17.24
2017-07-11T06:49:05.667Z,17.28
2017-07-11T06:50:05.669Z,17.27
2017-07-11T06:51:05.683Z,17.27
2017-07-11T06:52:06.005Z,17.28
2017-07-11T06:53:05.665Z,17.25
2017-07-11T06:54:05.678Z,17.22
2017-07-11T06:55:06.426Z,17.21
2017-07-11T06:56:05.647Z,17.28
2017-07-11T06:57:05.689Z,17.21
2017-07-11T06:58:05.610Z,17.22
2017-07-11T06:59:05.953Z,17.17
2017-07-11T07:00:06.025Z,17.18
2017-07-11T07:01:05.702Z,17.15
2017-07-11T07:02:05.700Z,17.17
2017-07-11T07:03:05.632Z,17.25
2017-07-11T07:04:05.619Z,17.17
2017-07-11T07:05:06.039Z,17.13
2017-07-11T07:06:05.635Z,17.13
2017-07-11T07:07:05.598Z,17.13
2017-07-11T07:08:05.727Z,17.09
2017-07-11T07:09:05.631Z,17.06
2017-07-11T07:10:05.937Z,17.03
2017-07-11T07:11:05.950Z,17.06
2017-07-11T07:12:05.957Z,17.06
2017-07-11T07:13:05.959Z,17.07
2017-07-11T07:14:05.598Z,17.03
2017-07-11T07:15:06.244Z,17.03
2017-07-11T07:16:05.901Z,17.1
2017-07-11T07:17:05.974Z,17.07
2017-07-11T07:18:05.947Z,17.07
2017-07-11T07:19:06.260Z,17.06
2017-07-11T07:20:05.927Z,17.09
2017-07-11T07:21:05.608Z,17.05
2017-07-11T07:22:05.548Z,17.09
2017-07-11T07:23:05.548Z,17.1
2017-07-11T07:24:05.612Z,17.1
2017-07-11T07:25:05.905Z,17.09
2017-07-11T07:26:06.337Z,17.1
2017-07-11T07:27:05.602Z,16.92
2017-07-11T07:28:05.889Z,16.97
2017-07-11T07:29:05.562Z,16.9
2017-07-11T07:30:05.861Z,16.92
2017-07-11T07:31:05.548Z,16.99
2017-07-11T07:32:05.897Z,16.99
2017-07-11T07:33:06.022Z,16.95
2017-07-11T07:34:05.915Z,17.03
2017-07-11T07:35:05.882Z,17.1
2017-07-11T07:36:05.527Z,17.1
2017-07-11T07:37:05.580Z,17.2
2017-07-11T07:38:05.861Z,17.21
2017-07-11T07:39:05.899Z,17.27
2017-07-11T07:40:05.571Z,17.27
2017-07-11T07:41:05.539Z,17.28
2017-07-11T07:42:05.800Z,17.28
2017-07-11T07:43:05.468Z,17.28
2017-07-11T07:44:05.921Z,17.27
2017-07-11T07:45:06.293Z,17.24
2017-07-11T07:46:05.871Z,17.39
2017-07-11T07:47:05.932Z,17.42
2017-07-11T07:48:05.864Z,17.42
2017-07-11T07:49:05.942Z,17.45
2017-07-11T07:50:05.470Z,17.32
2017-07-11T07:51:05.605Z,17.42
2017-07-11T07:52:05.851Z,17.35
2017-07-11T07:53:05.503Z,17.43
2017-07-11T07:54:05.497Z,17.4
2017-07-11T07:55:05.522Z,17.32
2017-07-11T07:56:05.868Z,17.35
2017-07-11T07:57:05.873Z,17.36
2017-07-11T07:58:06.237Z,17.31
2017-07-11T07:59:05.922Z,17.42
2017-07-11T08:00:05.455Z,17.42
2017-07-11T08:01:05.531Z,17.35
2017-07-11T08:02:05.488Z,17.43
2017-07-11T08:03:05.912Z,17.47
2017-07-11T08:04:06.151Z,17.45
2017-07-11T08:05:05.843Z,17.42
2017-07-11T08:06:05.436Z,17.5
2017-07-11T08:07:05.509Z,17.54
2017-07-11T08:08:05.474Z,17.55
2017-07-11T08:09:05.553Z,17.58
2017-07-11T08:10:05.462Z,17.77
2017-07-11T08:11:05.478Z,17.86
2017-07-11T08:12:05.779Z,17.84
2017-07-11T08:13:05.435Z,17.87
2017-07-11T08:14:05.431Z,17.96
2017-07-11T08:15:05.782Z,18.01
2017-07-11T08:16:05.742Z,18.19
2017-07-11T08:17:05.426Z,18.34
2017-07-11T08:18:06.123Z,18.26
2017-07-11T08:19:05.813Z,18.31
2017-07-11T08:20:05.379Z,18.27
2017-07-11T08:21:05.761Z,18.34
2017-07-11T08:22:05.718Z,18.35
2017-07-11T08:23:05.796Z,18.34
2017-07-11T08:24:05.466Z,18.32
2017-07-11T08:25:05.778Z,18.45
2017-07-11T08:26:05.828Z,18.5
2017-07-11T08:27:05.786Z,18.5
2017-07-11T08:28:05.738Z,18.63
2017-07-11T08:29:05.815Z,18.69
2017-07-11T08:30:05.453Z,18.71
2017-07-11T08:31:05.732Z,18.76
2017-07-11T08:32:06.077Z,18.93
2017-07-11T08:33:05.415Z,19.02
2017-07-11T08:34:05.737Z,19.15
2017-07-11T08:35:05.400Z,19.28
2017-07-11T08:36:05.436Z,19.5
2017-07-11T08:37:05.389Z,19.56
2017-07-11T08:38:05.353Z,19.63
2017-07-11T08:39:05.769Z,19.65
2017-07-11T08:40:05.740Z,19.74
2017-07-11T08:41:06.040Z,19.65
2017-07-11T08:42:05.719Z,19.8
2017-07-11T08:43:05.386Z,19.8
2017-07-11T08:44:05.766Z,19.87
2017-07-11T08:45:05.438Z,19.79
2017-07-11T08:46:05.726Z,19.82
2017-07-11T08:47:05.409Z,19.72
2017-07-11T08:48:05.366Z,19.78
2017-07-11T08:49:05.434Z,19.79
2017-07-11T08:50:05.355Z,19.82
2017-07-11T08:51:05.431Z,19.92
2017-07-11T08:52:05.374Z,19.95
2017-07-11T08:53:05.469Z,20.02
2017-07-11T08:54:05.691Z,20.11
2017-07-11T08:55:05.757Z,20.1
2017-07-11T08:56:05.760Z,20.34
2017-07-11T08:57:05.353Z,20.41
2017-07-11T08:58:05.406Z,20.51
2017-07-11T08:59:05.761Z,20.57
2017-07-11T09:00:05.366Z,20.79
2017-07-11T09:01:05.340Z,20.82
2017-07-11T09:02:06.068Z,20.93
2017-07-11T09:03:05.428Z,21.04
2017-07-11T09:04:05.333Z,21.06
2017-07-11T09:05:05.723Z,21.03
2017-07-11T09:06:05.419Z,20.86
2017-07-11T09:07:05.385Z,21
2017-07-11T09:08:05.384Z,21
2017-07-11T09:09:05.775Z,21.15
2017-07-11T09:10:05.375Z,21.23
2017-07-11T09:11:05.711Z,21.06
2017-07-11T09:12:05.724Z,21.01
2017-07-11T09:13:06.049Z,21.03
2017-07-11T09:14:05.745Z,21.01
2017-07-11T09:15:05.763Z,21.15
2017-07-11T09:16:05.704Z,21.28
2017-07-11T09:17:05.363Z,21.45
2017-07-11T09:18:05.743Z,21.59
2017-07-11T09:19:05.757Z,21.7
2017-07-11T09:20:05.688Z,21.77
2017-07-11T09:21:05.714Z,21.86
2017-07-11T09:22:05.387Z,21.94
2017-07-11T09:23:05.722Z,21.96
2017-07-11T09:24:05.350Z,22.14
2017-07-11T09:25:05.679Z,22.07
2017-07-11T09:26:05.428Z,22.11
2017-07-11T09:27:05.865Z,22.07
2017-07-11T09:28:05.585Z,22.14
2017-07-11T09:29:05.814Z,22.18
2017-07-11T09:30:05.753Z,22.26
2017-07-11T09:31:05.353Z,22.27
2017-07-11T09:32:05.737Z,22.41
2017-07-11T09:33:05.398Z,22.39
2017-07-11T09:34:05.391Z,22.46
2017-07-11T09:35:05.861Z,22.46
2017-07-11T09:36:05.764Z,22.59
2017-07-11T09:37:05.775Z,22.52
2017-07-11T09:38:05.994Z,22.38
2017-07-11T09:39:06.153Z,22.23
2017-07-11T09:40:05.375Z,22.23
2017-07-11T09:41:06.159Z,22.09
2017-07-11T09:42:05.764Z,22.12
2017-07-11T09:43:05.476Z,22.05
2017-07-11T09:44:05.385Z,22.08
2017-07-11T09:45:06.154Z,22.16
2017-07-11T09:46:05.777Z,22.23
2017-07-11T09:47:06.138Z,22.34
2017-07-11T09:48:05.447Z,22.36
2017-07-11T09:49:05.835Z,22.27
2017-07-11T09:50:05.811Z,22.2
2017-07-11T09:51:05.390Z,22.16
2017-07-11T09:52:05.858Z,22.18
2017-07-11T09:53:05.429Z,22.24
2017-07-11T09:54:05.754Z,22.18
2017-07-11T09:55:05.458Z,22.09
2017-07-11T09:56:05.469Z,21.99
2017-07-11T09:57:05.526Z,21.96
2017-07-11T09:58:05.546Z,21.96
2017-07-11T09:59:05.434Z,21.93
2017-07-11T10:00:05.854Z,22.05
2017-07-11T10:01:05.896Z,22.07
2017-07-11T10:02:05.473Z,22.09
2017-07-11T10:03:05.534Z,22.14
2017-07-11T10:04:05.755Z,21.96
2017-07-11T10:05:05.817Z,21.96
2017-07-11T10:06:05.446Z,22
2017-07-11T10:07:05.914Z,21.94
2017-07-11T10:08:05.454Z,22.12
2017-07-11T10:09:06.085Z,22.33
2017-07-11T10:10:05.449Z,22.61
2017-07-11T10:11:05.940Z,22.96
2017-07-11T10:12:05.945Z,23.14
2017-07-11T10:13:05.482Z,23.21
2017-07-11T10:14:05.743Z,23.37
2017-07-11T10:15:05.451Z,23.4
2017-07-11T10:16:05.737Z,23.47
2017-07-11T10:17:05.916Z,23.44
2017-07-11T10:18:05.828Z,23.55
2017-07-11T10:19:05.473Z,23.4
2017-07-11T10:20:05.527Z,23.56
2017-07-11T10:21:05.816Z,23.57
2017-07-11T10:22:05.497Z,23.62
2017-07-11T10:23:05.577Z,23.66
2017-07-11T10:24:05.803Z,23.7
2017-07-11T10:25:05.968Z,23.72
2017-07-11T10:26:05.443Z,23.72
2017-07-11T10:27:05.990Z,23.77
2017-07-11T10:28:05.838Z,23.96
2017-07-11T10:29:06.006Z,24.04
2017-07-11T10:30:05.450Z,24.18
2017-07-11T10:31:05.849Z,24.33
2017-07-11T10:32:06.162Z,24.54
2017-07-11T10:33:06.176Z,24.24
2017-07-11T10:34:05.506Z,24.21
2017-07-11T10:35:06.309Z,24.21
2017-07-11T10:36:05.446Z,24.3
2017-07-11T10:37:05.597Z,24.07
2017-07-11T10:38:06.273Z,23.82
2017-07-11T10:39:05.669Z,23.82
2017-07-11T10:40:05.904Z,23.89
2017-07-11T10:41:05.517Z,23.75
2017-07-11T10:42:06.234Z,23.77
2017-07-11T10:43:05.869Z,23.62
2017-07-11T10:44:05.826Z,23.56
2017-07-11T10:45:05.970Z,23.41
2017-07-11T10:46:05.580Z,23.24
2017-07-11T10:47:05.580Z,23.24
2017-07-11T10:48:05.933Z,23.04
2017-07-11T10:49:05.551Z,22.99
2017-07-11T10:50:05.537Z,22.99
2017-07-11T10:51:06.231Z,22.89
2017-07-11T10:52:05.832Z,23.01
2017-07-11T10:53:05.989Z,23.24
2017-07-11T10:54:05.942Z,23.38
2017-07-11T10:55:05.875Z,23.48
2017-07-11T10:56:05.522Z,23.7
2017-07-11T10:57:05.919Z,23.87
2017-07-11T10:58:06.271Z,24.02
2017-07-11T10:59:05.580Z,24.14
2017-07-11T11:00:05.555Z,24.24
2017-07-11T11:01:05.960Z,24.32
2017-07-11T11:02:06.292Z,24.33
2017-07-11T11:03:05.918Z,24.34
2017-07-11T11:04:05.636Z,24.39
2017-07-11T11:05:05.665Z,24.32
2017-07-11T11:06:05.560Z,24.15
2017-07-11T11:07:05.567Z,24.12
2017-07-11T11:08:05.596Z,24.08
2017-07-11T11:09:05.954Z,23.9
2017-07-11T11:10:05.592Z,23.78
2017-07-11T11:11:05.905Z,23.67
2017-07-11T11:12:06.223Z,23.79
2017-07-11T11:13:05.617Z,23.92
2017-07-11T11:14:05.940Z,23.66
2017-07-11T11:15:05.591Z,23.67
2017-07-11T11:16:06.064Z,23.6
2017-07-11T11:17:06.278Z,23.42
2017-07-11T11:18:06.377Z,23.24
2017-07-11T11:19:05.914Z,23.01
2017-07-11T11:20:05.604Z,23.03
2017-07-11T11:21:05.680Z,23.15
2017-07-11T11:22:05.762Z,23.37
2017-07-11T11:23:05.643Z,23.6
2017-07-11T11:24:05.857Z,23.92
2017-07-11T11:25:06.024Z,24.15
2017-07-11T11:26:05.949Z,24.3
2017-07-11T11:27:05.737Z,24.49
2017-07-11T11:28:05.565Z,24.7
2017-07-11T11:29:05.603Z,24.7
2017-07-11T11:30:05.619Z,24.69
2017-07-11T11:31:05.995Z,24.61
2017-07-11T11:32:05.934Z,24.44
2017-07-11T11:33:05.944Z,24.44
2017-07-11T11:34:05.579Z,24.4
2017-07-11T11:35:05.977Z,24.24
2017-07-11T11:36:05.993Z,24.19
2017-07-11T11:37:05.956Z,24.18
2017-07-11T11:38:05.634Z,23.97
2017-07-11T11:39:06.268Z,23.99
2017-07-11T11:40:05.669Z,24.02
2017-07-11T11:41:05.715Z,23.79
2017-07-11T11:42:06.035Z,23.57
2017-07-11T11:43:05.685Z,23.62
2017-07-11T11:44:05.626Z,23.4
2017-07-11T11:45:05.640Z,23.4
2017-07-11T11:46:05.970Z,23.53
2017-07-11T11:47:06.378Z,23.64
2017-07-11T11:48:05.694Z,23.67
2017-07-11T11:49:05.759Z,23.66
2017-07-11T11:50:05.784Z,23.5
2017-07-11T11:51:06.052Z,23.34
2017-07-11T11:52:06.367Z,23.19
2017-07-11T11:53:06.055Z,23.03
2017-07-11T11:54:05.754Z,22.91
2017-07-11T11:55:06.017Z,22.66
2017-07-11T11:56:06.079Z,22.41
2017-07-11T11:57:06.086Z,22.04
2017-07-11T11:58:06.040Z,21.74
2017-07-11T11:59:06.045Z,21.4
2017-07-11T12:00:05.991Z,20.9
2017-07-11T12:01:06.079Z,20.63
2017-07-11T12:02:05.800Z,20.15
2017-07-11T12:03:05.856Z,19.98
2017-07-11T12:04:06.067Z,19.75
2017-07-11T12:05:05.722Z,19.57
2017-07-11T12:06:06.131Z,19.46
2017-07-11T12:07:05.675Z,19.28
2017-07-11T12:08:05.731Z,19.12
2017-07-11T12:09:06.318Z,19.02
2017-07-11T12:10:06.039Z,18.84
2017-07-11T12:11:06.333Z,18.84
2017-07-11T12:12:06.086Z,18.84
2017-07-11T12:13:06.062Z,18.96
2017-07-11T12:14:05.700Z,19.12
2017-07-11T12:15:06.384Z,19.3
2017-07-11T12:16:05.701Z,19.37
2017-07-11T12:17:05.980Z,19.49
2017-07-11T12:18:06.004Z,19.55
2017-07-11T12:19:05.736Z,19.74
2017-07-11T12:20:05.986Z,19.83
2017-07-11T12:21:05.748Z,20.02
2017-07-11T12:22:05.703Z,20.02
2017-07-11T12:23:05.707Z,20.3
2017-07-11T12:24:05.674Z,20.42
2017-07-11T12:25:06.078Z,20.76
2017-07-11T12:26:05.680Z,20.96
2017-07-11T12:27:05.690Z,21.19
2017-07-11T12:28:06.023Z,21.27
2017-07-11T12:29:06.136Z,21.48
2017-07-11T12:30:05.774Z,21.59
2017-07-11T12:31:05.690Z,21.77
2017-07-11T12:32:06.058Z,22.05
2017-07-11T12:33:06.040Z,22.12
2017-07-11T12:34:06.358Z,22.26
2017-07-11T12:35:05.720Z,22.38
2017-07-11T12:36:06.400Z,22.41
2017-07-11T12:37:05.740Z,22.46
2017-07-11T12:38:06.052Z,22.45
2017-07-11T12:39:05.712Z,22.38
2017-07-11T12:40:05.998Z,22.18
2017-07-11T12:41:06.001Z,22.11
2017-07-11T12:42:06.023Z,22.09
2017-07-11T12:43:06.205Z,22.12
2017-07-11T12:44:06.081Z,22.18
2017-07-11T12:45:05.696Z,22.24
2017-07-11T12:46:06.003Z,22.34
2017-07-11T12:47:06.055Z,22.34
2017-07-11T12:48:06.337Z,22.33
2017-07-11T12:49:06.413Z,22.44
2017-07-11T12:50:06.133Z,22.59
2017-07-11T12:51:05.750Z,22.51
2017-07-11T12:52:06.370Z,22.61
2017-07-11T12:53:05.781Z,22.76
2017-07-11T12:54:05.676Z,22.85
2017-07-11T12:55:06.156Z,22.86
2017-07-11T12:56:06.401Z,22.78